Red River, New Mexico
Current Conditions -  °F | °C
As of 11:55 AM on Tuesday 27 Jan 2015 (Local Time) from KAXX Reporting Station
Clear Clear  
Wind Chill: 46°   Ceiling: Unl
Heat Index: 46°   Visibility: 10mi
Dew Point: 21°   Wind: 0mph
Humidity: 38%   Direction: NA
Pressure: 30.36"   Gusts: NA
Location:  36.71°N, 105.41°W
Report Text: KAXX 271855Z AUTO 00000KT 10SM CLR 08/M06 A3036 RMK AO2 T00781059
Loading
Personal Weather Stations






























Interactive Weather Map New forecast layout! Learn more

10-Day Weather Forecast

Advertisements
Track Severe Weather on mobile